LAN8202 SBGR-SPJC
Flight info
| Callsign | LAN8202 |
|---|---|
| Flight time | N/A |
| Altitude | 34000 |
| Route | EGEVA UM415 JUL UV18 AND UT336 VUPUD DCT PEROV |
| Aircraft | B763/H-SDE3FGHIM3RWXY/LB1 |
Departure
| Time | 2026-05-07 19:46 |
|---|---|
| Airport | São Paulo/Guarulhos–Governor André Franco Montoro International Airport (SBGR) |
Arrival
| Time | N/A |
|---|---|
| Airport | Jorge Chávez International Airport (SPJC) |
| Time | Latitude | Longitude | Altitude | Speed | Heading |
|---|---|---|---|---|---|
| 2026-05-07 18:51 | -23.42838 | -46.48073 | 2452 ft | 0 kts | 85° |
| 2026-05-07 19:28 | -23.42838 | -46.48074 | 2452 ft | 0 kts | 85° |
| 2026-05-07 19:30 | -23.42838 | -46.48076 | 2452 ft | 0 kts | 90° |
| 2026-05-07 19:31 | -23.42838 | -46.48086 | 2452 ft | 2 kts | 98° |
| 2026-05-07 19:32 | -23.42834 | -46.48101 | 2452 ft | 2 kts | 118° |
| 2026-05-07 19:32 | -23.42825 | -46.48114 | 2452 ft | 2 kts | 135° |
| 2026-05-07 19:32 | -23.42814 | -46.48124 | 2452 ft | 2 kts | 152° |
| 2026-05-07 19:32 | -23.42800 | -46.48130 | 2452 ft | 2 kts | 169° |
| 2026-05-07 19:33 | -23.42785 | -46.48131 | 2452 ft | 2 kts | 176° |
| 2026-05-07 19:33 | -23.42776 | -46.48132 | 2452 ft | 0 kts | 175° |
| 2026-05-07 19:33 | -23.42777 | -46.48132 | 2452 ft | 0 kts | 175° |
| 2026-05-07 19:38 | -23.42778 | -46.48132 | 2452 ft | 1 kts | 175° |
| 2026-05-07 19:38 | -23.42817 | -46.48128 | 2452 ft | 8 kts | 175° |
| 2026-05-07 19:39 | -23.42896 | -46.48124 | 2452 ft | 13 kts | 187° |
| 2026-05-07 19:39 | -23.42976 | -46.48140 | 2452 ft | 9 kts | 178° |
| 2026-05-07 19:39 | -23.43029 | -46.48136 | 2453 ft | 5 kts | 174° |
| 2026-05-07 19:39 | -23.43079 | -46.48132 | 2453 ft | 8 kts | 184° |
| 2026-05-07 19:40 | -23.43120 | -46.48167 | 2454 ft | 7 kts | 244° |
| 2026-05-07 19:40 | -23.43144 | -46.48244 | 2454 ft | 14 kts | 253° |
| 2026-05-07 19:40 | -23.43176 | -46.48357 | 2452 ft | 14 kts | 246° |
| 2026-05-07 19:40 | -23.43247 | -46.48382 | 2453 ft | 9 kts | 165° |
| 2026-05-07 19:41 | -23.43292 | -46.48369 | 2454 ft | 0 kts | 164° |
| 2026-05-07 19:42 | -23.43293 | -46.48369 | 2454 ft | 0 kts | 164° |
| 2026-05-07 19:42 | -23.43327 | -46.48359 | 2455 ft | 9 kts | 164° |
| 2026-05-07 19:42 | -23.43395 | -46.48333 | 2456 ft | 9 kts | 145° |
| 2026-05-07 19:43 | -23.43411 | -46.48282 | 2457 ft | 6 kts | 81° |
| 2026-05-07 19:43 | -23.43409 | -46.48271 | 2457 ft | 0 kts | 77° |
| 2026-05-07 19:44 | -23.43404 | -46.48249 | 2457 ft | 11 kts | 77° |
| 2026-05-07 19:44 | -23.43342 | -46.48012 | 2459 ft | 55 kts | 73° |
| 2026-05-07 19:44 | -23.43189 | -46.47462 | 2460 ft | 97 kts | 73° |
| 2026-05-07 19:45 | -23.42960 | -46.46614 | 2456 ft | 134 kts | 72° |
| 2026-05-07 19:45 | -23.42663 | -46.45526 | 2460 ft | 163 kts | 70° |
| 2026-05-07 19:45 | -23.42370 | -46.44334 | 2759 ft | 160 kts | 72° |
| 2026-05-07 19:45 | -23.42099 | -46.43116 | 2931 ft | 171 kts | 73° |
| 2026-05-07 19:46 | -23.41821 | -46.41842 | 3188 ft | 176 kts | 73° |
| 2026-05-07 19:46 | -23.41547 | -46.40528 | 3435 ft | 181 kts | 73° |
| 2026-05-07 19:46 | -23.41257 | -46.39174 | 3683 ft | 185 kts | 73° |
| 2026-05-07 19:46 | -23.40963 | -46.37796 | 3923 ft | 190 kts | 73° |
| 2026-05-07 19:47 | -23.40655 | -46.36380 | 4172 ft | 195 kts | 73° |
| 2026-05-07 19:47 | -23.40339 | -46.34931 | 4424 ft | 199 kts | 70° |
| 2026-05-07 19:47 | -23.39622 | -46.33672 | 4664 ft | 196 kts | 37° |
| 2026-05-07 19:47 | -23.38468 | -46.32882 | 4944 ft | 196 kts | 25° |
| 2026-05-07 19:48 | -23.37159 | -46.32595 | 5172 ft | 196 kts | 350° |
| 2026-05-07 19:48 | -23.35970 | -46.33278 | 5490 ft | 196 kts | 311° |
| 2026-05-07 19:48 | -23.35292 | -46.34556 | 5854 ft | 198 kts | 297° |
| 2026-05-07 19:48 | -23.34830 | -46.35978 | 6225 ft | 201 kts | 277° |
| 2026-05-07 19:49 | -23.35115 | -46.37456 | 6600 ft | 206 kts | 240° |
| 2026-05-07 19:49 | -23.35986 | -46.38683 | 6960 ft | 205 kts | 233° |
| 2026-05-07 19:49 | -23.36914 | -46.39870 | 7273 ft | 205 kts | 233° |
| 2026-05-07 19:49 | -23.37619 | -46.41161 | 7562 ft | 196 kts | 264° |
| 2026-05-07 19:50 | -23.37618 | -46.42584 | 7894 ft | 186 kts | 280° |
| 2026-05-07 19:50 | -23.37445 | -46.43996 | 8139 ft | 193 kts | 281° |
| 2026-05-07 19:50 | -23.37254 | -46.45497 | 8344 ft | 206 kts | 281° |
| 2026-05-07 19:50 | -23.37046 | -46.47095 | 8538 ft | 221 kts | 281° |
| 2026-05-07 19:51 | -23.36818 | -46.48808 | 8731 ft | 238 kts | 281° |
| 2026-05-07 19:51 | -23.36551 | -46.50651 | 8925 ft | 257 kts | 282° |
| 2026-05-07 19:51 | -23.36257 | -46.52644 | 9089 ft | 278 kts | 282° |
| 2026-05-07 19:51 | -23.35932 | -46.54790 | 9271 ft | 294 kts | 281° |
| 2026-05-07 19:52 | -23.35595 | -46.56998 | 9419 ft | 297 kts | 281° |
| 2026-05-07 19:52 | -23.35260 | -46.59208 | 9627 ft | 290 kts | 282° |
| 2026-05-07 19:52 | -23.34932 | -46.61315 | 10079 ft | 285 kts | 282° |
| 2026-05-07 19:52 | -23.34606 | -46.63475 | 10558 ft | 294 kts | 281° |
| 2026-05-07 19:53 | -23.34273 | -46.65702 | 11037 ft | 301 kts | 282° |
| 2026-05-07 19:53 | -23.33923 | -46.67869 | 11423 ft | 307 kts | 287° |
| 2026-05-07 19:53 | -23.33140 | -46.70006 | 11476 ft | 327 kts | 301° |
| 2026-05-07 19:53 | -23.32123 | -46.72248 | 11614 ft | 350 kts | 291° |
| 2026-05-07 19:54 | -23.31435 | -46.74684 | 12237 ft | 354 kts | 287° |
| 2026-05-07 19:54 | -23.30844 | -46.77261 | 12869 ft | 359 kts | 284° |
| 2026-05-07 19:54 | -23.30337 | -46.79922 | 13493 ft | 363 kts | 283° |
| 2026-05-07 19:54 | -23.29874 | -46.82631 | 14107 ft | 368 kts | 282° |
| 2026-05-07 19:55 | -23.29429 | -46.85394 | 14711 ft | 372 kts | 281° |
| 2026-05-07 19:55 | -23.28998 | -46.88163 | 15300 ft | 375 kts | 281° |
| 2026-05-07 19:55 | -23.28567 | -46.90991 | 15890 ft | 379 kts | 281° |
| 2026-05-07 19:55 | -23.28136 | -46.93832 | 16465 ft | 383 kts | 281° |
| 2026-05-07 19:56 | -23.27704 | -46.96694 | 17018 ft | 387 kts | 280° |
| 2026-05-07 19:56 | -23.27269 | -46.99593 | 17559 ft | 391 kts | 280° |
| 2026-05-07 19:56 | -23.26832 | -47.02494 | 18068 ft | 394 kts | 280° |
| 2026-05-07 19:56 | -23.26390 | -47.05428 | 18583 ft | 397 kts | 280° |
| 2026-05-07 19:57 | -23.25942 | -47.08405 | 19103 ft | 401 kts | 280° |
| 2026-05-07 19:57 | -23.25486 | -47.11427 | 19684 ft | 402 kts | 280° |
| 2026-05-07 19:57 | -23.25032 | -47.14428 | 20223 ft | 404 kts | 280° |
| 2026-05-07 19:57 | -23.24579 | -47.17426 | 20748 ft | 405 kts | 279° |
| 2026-05-07 19:58 | -23.24118 | -47.20468 | 21272 ft | 407 kts | 279° |
| 2026-05-07 19:58 | -23.23661 | -47.23478 | 21803 ft | 408 kts | 279° |
| 2026-05-07 19:58 | -23.23198 | -47.26527 | 22321 ft | 409 kts | 279° |
| 2026-05-07 19:58 | -23.22735 | -47.29568 | 22830 ft | 409 kts | 279° |
| 2026-05-07 19:59 | -23.22271 | -47.32612 | 23332 ft | 410 kts | 279° |
| 2026-05-07 19:59 | -23.21802 | -47.35687 | 23815 ft | 412 kts | 279° |
| 2026-05-07 19:59 | -23.21335 | -47.38742 | 24294 ft | 413 kts | 278° |
| 2026-05-07 19:59 | -23.20868 | -47.41797 | 24768 ft | 414 kts | 278° |
| 2026-05-07 20:00 | -23.20391 | -47.44913 | 25243 ft | 415 kts | 278° |
| 2026-05-07 20:00 | -23.19917 | -47.48005 | 25666 ft | 418 kts | 278° |
| 2026-05-07 20:00 | -23.19435 | -47.51141 | 26106 ft | 420 kts | 278° |
| 2026-05-07 20:00 | -23.18953 | -47.54280 | 26541 ft | 423 kts | 278° |
| 2026-05-07 20:01 | -23.18470 | -47.57415 | 26960 ft | 425 kts | 278° |
| 2026-05-07 20:01 | -23.17979 | -47.60598 | 27371 ft | 428 kts | 278° |
| 2026-05-07 20:01 | -23.17622 | -47.63808 | 27755 ft | 429 kts | 271° |
| 2026-05-07 20:01 | -23.17509 | -47.67033 | 28149 ft | 431 kts | 271° |
| 2026-05-07 20:02 | -23.17381 | -47.70168 | 28555 ft | 433 kts | 271° |
| 2026-05-07 20:02 | -23.17260 | -47.73346 | 28964 ft | 435 kts | 271° |
| 2026-05-07 20:02 | -23.17138 | -47.76578 | 29376 ft | 438 kts | 271° |
| 2026-05-07 20:02 | -23.17017 | -47.79785 | 29778 ft | 440 kts | 271° |
| 2026-05-07 20:03 | -23.16891 | -47.83113 | 30195 ft | 442 kts | 271° |
| 2026-05-07 20:03 | -23.16766 | -47.86421 | 30594 ft | 444 kts | 271° |
| 2026-05-07 20:03 | -23.16638 | -47.89780 | 30995 ft | 446 kts | 270° |
| 2026-05-07 20:03 | -23.16509 | -47.93179 | 31395 ft | 448 kts | 270° |
| 2026-05-07 20:04 | -23.16379 | -47.96548 | 31782 ft | 450 kts | 270° |
| 2026-05-07 20:04 | -23.16248 | -47.99947 | 32161 ft | 452 kts | 270° |
| 2026-05-07 20:04 | -23.16117 | -48.03317 | 32593 ft | 451 kts | 270° |
| 2026-05-07 20:04 | -23.15985 | -48.06699 | 33080 ft | 449 kts | 270° |
| 2026-05-07 20:05 | -23.15853 | -48.10073 | 33553 ft | 448 kts | 270° |
| 2026-05-07 20:05 | -23.15719 | -48.13452 | 34007 ft | 445 kts | 270° |
| 2026-05-07 20:05 | -23.15453 | -48.20150 | 34077 ft | 440 kts | 270° |
| 2026-05-07 20:06 | -23.15190 | -48.26682 | 34004 ft | 430 kts | 269° |
| 2026-05-07 20:06 | -23.14928 | -48.33141 | 34006 ft | 423 kts | 269° |
| 2026-05-07 20:07 | -23.14669 | -48.39478 | 33989 ft | 416 kts | 269° |
| 2026-05-07 20:07 | -23.14410 | -48.45740 | 34011 ft | 418 kts | 269° |
| 2026-05-07 20:08 | -23.14145 | -48.52121 | 34033 ft | 428 kts | 269° |
| 2026-05-07 20:08 | -23.13138 | -48.58529 | 34047 ft | 443 kts | 284° |
| 2026-05-07 20:09 | -23.11143 | -48.64980 | 34028 ft | 452 kts | 284° |
| 2026-05-07 20:10 | -23.08133 | -48.74536 | 34031 ft | 451 kts | 285° |
| 2026-05-07 20:10 | -23.06114 | -48.80905 | 34030 ft | 451 kts | 285° |
| 2026-05-07 20:11 | -23.04066 | -48.87344 | 34030 ft | 452 kts | 285° |
| 2026-05-07 20:11 | -23.02010 | -48.93794 | 34029 ft | 452 kts | 285° |
| 2026-05-07 20:12 | -22.99954 | -49.00232 | 34028 ft | 452 kts | 285° |
| 2026-05-07 20:12 | -22.97888 | -49.06693 | 34024 ft | 452 kts | 285° |
| 2026-05-07 20:13 | -22.95826 | -49.13134 | 34019 ft | 452 kts | 285° |
| 2026-05-07 20:13 | -22.93644 | -49.19492 | 34013 ft | 453 kts | 288° |
| 2026-05-07 20:14 | -22.91303 | -49.25843 | 34002 ft | 453 kts | 288° |
| 2026-05-07 20:14 | -22.89075 | -49.32152 | 33989 ft | 450 kts | 284° |
| 2026-05-07 20:15 | -22.87182 | -49.38375 | 33982 ft | 451 kts | 284° |
| 2026-05-07 20:16 | -22.83072 | -49.51352 | 33968 ft | 453 kts | 286° |
| 2026-05-07 20:16 | -22.80915 | -49.57782 | 33959 ft | 453 kts | 286° |
| 2026-05-07 20:17 | -22.78763 | -49.64188 | 33951 ft | 452 kts | 286° |
| 2026-05-07 20:17 | -22.76632 | -49.70526 | 33947 ft | 453 kts | 287° |
| 2026-05-07 20:18 | -22.74510 | -49.76828 | 33936 ft | 454 kts | 287° |
| 2026-05-07 20:18 | -22.72377 | -49.83150 | 33932 ft | 453 kts | 287° |
| 2026-05-07 20:19 | -22.70210 | -49.89563 | 33931 ft | 453 kts | 287° |
| 2026-05-07 20:19 | -22.68035 | -49.95988 | 33931 ft | 454 kts | 287° |
| 2026-05-07 20:20 | -22.65863 | -50.02400 | 33929 ft | 454 kts | 287° |
| 2026-05-07 20:20 | -22.63681 | -50.08829 | 33930 ft | 453 kts | 287° |
| 2026-05-07 20:21 | -22.61528 | -50.15199 | 33934 ft | 452 kts | 287° |
| 2026-05-07 20:21 | -22.59370 | -50.21574 | 33929 ft | 452 kts | 287° |
| 2026-05-07 20:22 | -22.57185 | -50.27979 | 33922 ft | 452 kts | 287° |
| 2026-05-07 20:22 | -22.55007 | -50.34307 | 33918 ft | 452 kts | 287° |
| 2026-05-07 20:23 | -22.52811 | -50.40676 | 33913 ft | 452 kts | 287° |
| 2026-05-07 20:23 | -22.50614 | -50.47042 | 33908 ft | 452 kts | 287° |
| 2026-05-07 20:24 | -22.48409 | -50.53420 | 33903 ft | 452 kts | 287° |
| 2026-05-07 20:24 | -22.46209 | -50.59776 | 33899 ft | 452 kts | 287° |
| 2026-05-07 20:25 | -22.43997 | -50.66156 | 33898 ft | 452 kts | 287° |
| 2026-05-07 20:25 | -22.41809 | -50.72456 | 33914 ft | 452 kts | 287° |
| 2026-05-07 20:26 | -22.39629 | -50.78725 | 33927 ft | 451 kts | 287° |
| 2026-05-07 20:26 | -22.37445 | -50.84997 | 33929 ft | 451 kts | 287° |
| 2026-05-07 20:27 | -22.35226 | -50.91363 | 33926 ft | 450 kts | 287° |
| 2026-05-07 20:27 | -22.33032 | -50.97646 | 33922 ft | 450 kts | 287° |
| 2026-05-07 20:28 | -22.30821 | -51.03967 | 33915 ft | 449 kts | 287° |
| 2026-05-07 20:28 | -22.28611 | -51.10278 | 33917 ft | 449 kts | 287° |
| 2026-05-07 20:29 | -22.26399 | -51.16587 | 33921 ft | 449 kts | 287° |
| 2026-05-07 20:29 | -22.24190 | -51.22876 | 33911 ft | 448 kts | 287° |
| 2026-05-07 20:30 | -22.21980 | -51.29160 | 33900 ft | 447 kts | 287° |
| 2026-05-07 20:30 | -22.19783 | -51.35398 | 33899 ft | 447 kts | 287° |
| 2026-05-07 20:31 | -22.17576 | -51.41656 | 33898 ft | 447 kts | 287° |
| 2026-05-07 20:31 | -22.15408 | -51.47957 | 33899 ft | 447 kts | 287° |
| 2026-05-07 20:32 | -22.13258 | -51.54231 | 33898 ft | 446 kts | 287° |
| 2026-05-07 20:32 | -22.11103 | -51.60510 | 33896 ft | 446 kts | 287° |
| 2026-05-07 20:33 | -22.08962 | -51.66736 | 33899 ft | 446 kts | 287° |
| 2026-05-07 20:33 | -22.06814 | -51.72974 | 33900 ft | 447 kts | 287° |
| 2026-05-07 20:34 | -22.04690 | -51.79133 | 33897 ft | 446 kts | 287° |
| 2026-05-07 20:34 | -22.02512 | -51.85441 | 33896 ft | 446 kts | 287° |
| 2026-05-07 20:35 | -22.00349 | -51.91695 | 33892 ft | 446 kts | 287° |
| 2026-05-07 20:35 | -21.98181 | -51.97959 | 33888 ft | 446 kts | 287° |
| 2026-05-07 20:36 | -21.96012 | -52.04213 | 33884 ft | 446 kts | 287° |
| 2026-05-07 20:36 | -21.93827 | -52.10505 | 33878 ft | 446 kts | 287° |
| 2026-05-07 20:37 | -21.91662 | -52.16733 | 33874 ft | 446 kts | 287° |
| 2026-05-07 20:37 | -21.89481 | -52.22996 | 33867 ft | 447 kts | 287° |
| 2026-05-07 20:38 | -21.87356 | -52.29088 | 33864 ft | 447 kts | 287° |
| 2026-05-07 20:38 | -21.85190 | -52.35283 | 33865 ft | 447 kts | 287° |
| 2026-05-07 20:39 | -21.82993 | -52.41555 | 33867 ft | 447 kts | 287° |
| 2026-05-07 20:39 | -21.80812 | -52.47773 | 33870 ft | 447 kts | 287° |
| 2026-05-07 20:40 | -21.78602 | -52.54065 | 33872 ft | 447 kts | 287° |
| 2026-05-07 20:40 | -21.76410 | -52.60301 | 33873 ft | 447 kts | 287° |
| 2026-05-07 20:41 | -21.74210 | -52.66548 | 33877 ft | 447 kts | 288° |
| 2026-05-07 20:41 | -21.72012 | -52.72781 | 33882 ft | 448 kts | 288° |
| 2026-05-07 20:42 | -21.69822 | -52.78981 | 33884 ft | 447 kts | 288° |
| 2026-05-07 20:42 | -21.67609 | -52.85241 | 33886 ft | 448 kts | 288° |
| 2026-05-07 20:43 | -21.65400 | -52.91484 | 33888 ft | 448 kts | 288° |
| 2026-05-07 20:43 | -21.63183 | -52.97735 | 33897 ft | 448 kts | 288° |
| 2026-05-07 20:44 | -21.60975 | -53.03955 | 33906 ft | 448 kts | 288° |
| 2026-05-07 20:44 | -21.58748 | -53.10221 | 33907 ft | 448 kts | 288° |
| 2026-05-07 20:45 | -21.56539 | -53.16426 | 33904 ft | 447 kts | 288° |
| 2026-05-07 20:45 | -21.54316 | -53.22664 | 33902 ft | 447 kts | 288° |
| 2026-05-07 20:46 | -21.52079 | -53.28932 | 33900 ft | 447 kts | 288° |
| 2026-05-07 20:46 | -21.49856 | -53.35154 | 33884 ft | 447 kts | 288° |
| 2026-05-07 20:47 | -21.47634 | -53.41361 | 33866 ft | 447 kts | 288° |
| 2026-05-07 20:47 | -21.45405 | -53.47583 | 33854 ft | 447 kts | 288° |
| 2026-05-07 20:48 | -21.43171 | -53.53804 | 33845 ft | 447 kts | 288° |
| 2026-05-07 20:48 | -21.40929 | -53.60038 | 33847 ft | 447 kts | 288° |
| 2026-05-07 20:49 | -21.38705 | -53.66213 | 33854 ft | 447 kts | 288° |
| 2026-05-07 20:49 | -21.36467 | -53.72421 | 33861 ft | 447 kts | 288° |
| 2026-05-07 20:50 | -21.34226 | -53.78626 | 33860 ft | 446 kts | 288° |
| 2026-05-07 20:50 | -21.31996 | -53.84797 | 33858 ft | 446 kts | 288° |
| 2026-05-07 20:51 | -21.29748 | -53.91008 | 33856 ft | 447 kts | 288° |
| 2026-05-07 20:51 | -21.27499 | -53.97211 | 33856 ft | 446 kts | 288° |
| 2026-05-07 20:52 | -21.25260 | -54.03381 | 33857 ft | 446 kts | 288° |
| 2026-05-07 20:52 | -21.23007 | -54.09584 | 33858 ft | 446 kts | 288° |
| 2026-05-07 20:53 | -21.20753 | -54.15778 | 33860 ft | 445 kts | 288° |
| 2026-05-07 20:53 | -21.18513 | -54.21928 | 33862 ft | 445 kts | 288° |
| 2026-05-07 20:54 | -21.16247 | -54.28143 | 33866 ft | 445 kts | 288° |
| 2026-05-07 20:54 | -21.14005 | -54.34279 | 33869 ft | 445 kts | 288° |
| 2026-05-07 20:55 | -21.11745 | -54.40462 | 33871 ft | 446 kts | 288° |
| 2026-05-07 20:55 | -21.09478 | -54.46651 | 33871 ft | 446 kts | 288° |
| 2026-05-07 20:56 | -21.07225 | -54.52798 | 33869 ft | 446 kts | 288° |
| 2026-05-07 20:56 | -21.04951 | -54.58990 | 33871 ft | 445 kts | 288° |
| 2026-05-07 20:57 | -21.02691 | -54.65140 | 33876 ft | 445 kts | 289° |
| 2026-05-07 20:57 | -21.00461 | -54.71199 | 33893 ft | 446 kts | 289° |
| 2026-05-07 20:58 | -20.98227 | -54.77262 | 33901 ft | 445 kts | 289° |
| 2026-05-07 20:58 | -20.95937 | -54.83467 | 33893 ft | 445 kts | 288° |
| 2026-05-07 20:59 | -20.93661 | -54.89627 | 33881 ft | 445 kts | 288° |
| 2026-05-07 20:59 | -20.91397 | -54.95747 | 33869 ft | 445 kts | 288° |
| 2026-05-07 21:00 | -20.89112 | -55.01917 | 33856 ft | 445 kts | 288° |
| 2026-05-07 21:00 | -20.86871 | -55.07956 | 33851 ft | 444 kts | 288° |
| 2026-05-07 21:01 | -20.84583 | -55.13992 | 33847 ft | 444 kts | 289° |
| 2026-05-07 21:01 | -20.82261 | -55.20072 | 33842 ft | 444 kts | 289° |
| 2026-05-07 21:02 | -20.79912 | -55.26213 | 33835 ft | 444 kts | 289° |
| 2026-05-07 21:02 | -20.77583 | -55.32296 | 33824 ft | 444 kts | 289° |
| 2026-05-07 21:03 | -20.75239 | -55.38409 | 33815 ft | 444 kts | 289° |
| 2026-05-07 21:03 | -20.72905 | -55.44490 | 33811 ft | 444 kts | 289° |
| 2026-05-07 21:04 | -20.70552 | -55.50612 | 33810 ft | 443 kts | 289° |
| 2026-05-07 21:04 | -20.68208 | -55.56704 | 33808 ft | 443 kts | 289° |
| 2026-05-07 21:05 | -20.65866 | -55.62785 | 33803 ft | 444 kts | 289° |
| 2026-05-07 21:05 | -20.63559 | -55.68765 | 33809 ft | 444 kts | 289° |
| 2026-05-07 21:06 | -20.61229 | -55.74799 | 33801 ft | 443 kts | 289° |
| 2026-05-07 21:06 | -20.58915 | -55.80784 | 33798 ft | 443 kts | 289° |
| 2026-05-07 21:07 | -20.56564 | -55.86857 | 33799 ft | 443 kts | 289° |
| 2026-05-07 21:07 | -20.54209 | -55.92932 | 33791 ft | 443 kts | 289° |
| 2026-05-07 21:08 | -20.51844 | -55.99025 | 33783 ft | 443 kts | 289° |
| 2026-05-07 21:08 | -20.49496 | -56.05072 | 33778 ft | 443 kts | 289° |
| 2026-05-07 21:09 | -20.47140 | -56.11129 | 33770 ft | 443 kts | 289° |
| 2026-05-07 21:09 | -20.44767 | -56.17222 | 33761 ft | 443 kts | 289° |
| 2026-05-07 21:10 | -20.42413 | -56.23259 | 33753 ft | 442 kts | 289° |
| 2026-05-07 21:10 | -20.40050 | -56.29310 | 33746 ft | 442 kts | 289° |
| 2026-05-07 21:11 | -20.37675 | -56.35388 | 33732 ft | 442 kts | 289° |
| 2026-05-07 21:11 | -20.34139 | -56.44426 | 33734 ft | 440 kts | 290° |
| 2026-05-07 21:12 | -20.31775 | -56.50454 | 33771 ft | 440 kts | 290° |
| 2026-05-07 21:12 | -20.29425 | -56.56441 | 33797 ft | 440 kts | 290° |
| 2026-05-07 21:13 | -20.27053 | -56.62477 | 33814 ft | 440 kts | 290° |
| 2026-05-07 21:13 | -20.24729 | -56.68385 | 33830 ft | 439 kts | 290° |
| 2026-05-07 21:14 | -20.22388 | -56.74326 | 33833 ft | 438 kts | 290° |
| 2026-05-07 21:14 | -20.20059 | -56.80235 | 33847 ft | 438 kts | 290° |
| 2026-05-07 21:15 | -20.17704 | -56.86201 | 33855 ft | 438 kts | 290° |
| 2026-05-07 21:15 | -20.15353 | -56.92151 | 33854 ft | 437 kts | 290° |
| 2026-05-07 21:16 | -20.12996 | -56.98107 | 33853 ft | 436 kts | 290° |
| 2026-05-07 21:16 | -20.10634 | -57.04071 | 33851 ft | 437 kts | 290° |
| 2026-05-07 21:17 | -20.08280 | -57.10006 | 33844 ft | 437 kts | 290° |
| 2026-05-07 21:17 | -20.05912 | -57.15970 | 33838 ft | 436 kts | 290° |
| 2026-05-07 21:18 | -20.03550 | -57.21913 | 33832 ft | 436 kts | 290° |
| 2026-05-07 21:18 | -20.01193 | -57.27835 | 33826 ft | 436 kts | 290° |
| 2026-05-07 21:19 | -19.98821 | -57.33790 | 33817 ft | 436 kts | 290° |
| 2026-05-07 21:19 | -19.96458 | -57.39717 | 33806 ft | 437 kts | 291° |
| 2026-05-07 21:20 | -19.94079 | -57.45674 | 33796 ft | 437 kts | 290° |
| 2026-05-07 21:20 | -19.91683 | -57.51668 | 33789 ft | 440 kts | 290° |
| 2026-05-07 21:21 | -19.89301 | -57.57627 | 33789 ft | 441 kts | 290° |
| 2026-05-07 21:21 | -19.86925 | -57.63561 | 33788 ft | 440 kts | 290° |
| 2026-05-07 21:22 | -19.84580 | -57.69411 | 33799 ft | 440 kts | 291° |
| 2026-05-07 21:22 | -19.82180 | -57.75394 | 33798 ft | 440 kts | 291° |
| 2026-05-07 21:23 | -19.79804 | -57.81307 | 33797 ft | 440 kts | 291° |
| 2026-05-07 21:23 | -19.77446 | -57.87169 | 33792 ft | 439 kts | 291° |
| 2026-05-07 21:24 | -19.75049 | -57.93124 | 33783 ft | 438 kts | 291° |
| 2026-05-07 21:24 | -19.72652 | -57.99069 | 33768 ft | 439 kts | 291° |
| 2026-05-07 21:25 | -19.70248 | -58.05029 | 33756 ft | 439 kts | 291° |
| 2026-05-07 21:25 | -19.67850 | -58.10972 | 33754 ft | 439 kts | 291° |
| 2026-05-07 21:26 | -19.65459 | -58.16913 | 33755 ft | 439 kts | 291° |
| 2026-05-07 21:26 | -19.63070 | -58.22877 | 33754 ft | 439 kts | 290° |
| 2026-05-07 21:27 | -19.60702 | -58.28860 | 33754 ft | 439 kts | 291° |
| 2026-05-07 21:27 | -19.58341 | -58.34811 | 33754 ft | 439 kts | 290° |
| 2026-05-07 21:28 | -19.55979 | -58.40760 | 33755 ft | 439 kts | 290° |
| 2026-05-07 21:28 | -19.53612 | -58.46716 | 33756 ft | 439 kts | 290° |
| 2026-05-07 21:29 | -19.51242 | -58.52669 | 33758 ft | 439 kts | 290° |
| 2026-05-07 21:29 | -19.48859 | -58.58653 | 33763 ft | 439 kts | 290° |
| 2026-05-07 21:30 | -19.46484 | -58.64606 | 33768 ft | 439 kts | 290° |
| 2026-05-07 21:30 | -19.44115 | -58.70538 | 33784 ft | 440 kts | 291° |
| 2026-05-07 21:31 | -19.41740 | -58.76481 | 33791 ft | 440 kts | 291° |
| 2026-05-07 21:31 | -19.39360 | -58.82429 | 33799 ft | 440 kts | 291° |
| 2026-05-07 21:32 | -19.36983 | -58.88361 | 33806 ft | 440 kts | 291° |
| 2026-05-07 21:32 | -19.34594 | -58.94318 | 33814 ft | 440 kts | 290° |
| 2026-05-07 21:33 | -19.32190 | -59.00304 | 33823 ft | 440 kts | 290° |
| 2026-05-07 21:33 | -19.29800 | -59.06251 | 33828 ft | 440 kts | 290° |
| 2026-05-07 21:34 | -19.27404 | -59.12206 | 33828 ft | 440 kts | 290° |
| 2026-05-07 21:34 | -19.25012 | -59.18144 | 33819 ft | 440 kts | 290° |
| 2026-05-07 21:35 | -19.22614 | -59.24090 | 33813 ft | 440 kts | 290° |
| 2026-05-07 21:35 | -19.20215 | -59.30033 | 33818 ft | 440 kts | 290° |
| 2026-05-07 21:36 | -19.17823 | -59.35951 | 33823 ft | 440 kts | 290° |
| 2026-05-07 21:36 | -19.15413 | -59.41909 | 33827 ft | 440 kts | 290° |
| 2026-05-07 21:37 | -19.13014 | -59.47831 | 33832 ft | 440 kts | 290° |
| 2026-05-07 21:37 | -19.10605 | -59.53774 | 33837 ft | 439 kts | 290° |
| 2026-05-07 21:38 | -19.08195 | -59.59710 | 33840 ft | 439 kts | 290° |
| 2026-05-07 21:38 | -19.05794 | -59.65619 | 33844 ft | 439 kts | 291° |
| 2026-05-07 21:39 | -19.03395 | -59.71517 | 33856 ft | 440 kts | 291° |
| 2026-05-07 21:39 | -19.00998 | -59.77403 | 33859 ft | 439 kts | 291° |
| 2026-05-07 21:40 | -18.98582 | -59.83330 | 33860 ft | 440 kts | 291° |
| 2026-05-07 21:40 | -18.96160 | -59.89263 | 33864 ft | 441 kts | 291° |
| 2026-05-07 21:41 | -18.93745 | -59.95175 | 33865 ft | 441 kts | 291° |
| 2026-05-07 21:41 | -18.91311 | -60.01129 | 33861 ft | 441 kts | 291° |
| 2026-05-07 21:42 | -18.88879 | -60.07067 | 33859 ft | 440 kts | 290° |
| 2026-05-07 21:42 | -18.86499 | -60.12875 | 33859 ft | 440 kts | 291° |
| 2026-05-07 21:43 | -18.84119 | -60.18676 | 33860 ft | 439 kts | 290° |
| 2026-05-07 21:43 | -18.81697 | -60.24575 | 33860 ft | 440 kts | 290° |
| 2026-05-07 21:44 | -18.79263 | -60.30499 | 33861 ft | 440 kts | 290° |
| 2026-05-07 21:44 | -18.76823 | -60.36424 | 33859 ft | 440 kts | 290° |
| 2026-05-07 21:45 | -18.74377 | -60.42361 | 33858 ft | 440 kts | 290° |
| 2026-05-07 21:45 | -18.71942 | -60.48264 | 33855 ft | 440 kts | 290° |
| 2026-05-07 21:46 | -18.69494 | -60.54195 | 33853 ft | 440 kts | 290° |
| 2026-05-07 21:46 | -18.67047 | -60.60116 | 33851 ft | 440 kts | 290° |
| 2026-05-07 21:47 | -18.64615 | -60.65993 | 33853 ft | 440 kts | 291° |
| 2026-05-07 21:47 | -18.62238 | -60.71732 | 33857 ft | 441 kts | 291° |
| 2026-05-07 21:48 | -18.59810 | -60.77590 | 33855 ft | 440 kts | 291° |
| 2026-05-07 21:48 | -18.57364 | -60.83483 | 33853 ft | 440 kts | 291° |
| 2026-05-07 21:49 | -18.54912 | -60.89387 | 33847 ft | 440 kts | 291° |
| 2026-05-07 21:49 | -18.52465 | -60.95271 | 33834 ft | 440 kts | 291° |
| 2026-05-07 21:50 | -18.50001 | -61.01190 | 33824 ft | 440 kts | 291° |
| 2026-05-07 21:50 | -18.47534 | -61.07109 | 33823 ft | 440 kts | 291° |
| 2026-05-07 21:51 | -18.45066 | -61.13027 | 33822 ft | 441 kts | 291° |
| 2026-05-07 21:51 | -18.42605 | -61.18921 | 33817 ft | 441 kts | 291° |
| 2026-05-07 21:52 | -18.40136 | -61.24827 | 33813 ft | 440 kts | 291° |
| 2026-05-07 21:52 | -18.37682 | -61.30691 | 33811 ft | 440 kts | 291° |
| 2026-05-07 21:53 | -18.35214 | -61.36584 | 33810 ft | 441 kts | 291° |
| 2026-05-07 21:53 | -18.32809 | -61.42549 | 33808 ft | 441 kts | 290° |
| 2026-05-07 21:54 | -18.30426 | -61.48484 | 33807 ft | 442 kts | 290° |
| 2026-05-07 21:54 | -18.28028 | -61.54450 | 33812 ft | 441 kts | 290° |
| 2026-05-07 21:55 | -18.25649 | -61.60365 | 33816 ft | 441 kts | 290° |
| 2026-05-07 21:55 | -18.23266 | -61.66279 | 33818 ft | 442 kts | 290° |
| 2026-05-07 21:56 | -18.20943 | -61.72040 | 33820 ft | 442 kts | 290° |
| 2026-05-07 21:56 | -18.18573 | -61.77911 | 33817 ft | 443 kts | 290° |
| 2026-05-07 21:57 | -18.16157 | -61.83890 | 33813 ft | 443 kts | 290° |
| 2026-05-07 21:57 | -18.13749 | -61.89840 | 33809 ft | 443 kts | 290° |
| 2026-05-07 21:58 | -18.11348 | -61.95766 | 33805 ft | 443 kts | 290° |
| 2026-05-07 21:58 | -18.08914 | -62.01765 | 33800 ft | 443 kts | 290° |
| 2026-05-07 21:59 | -18.06508 | -62.07690 | 33793 ft | 444 kts | 290° |
| 2026-05-07 21:59 | -18.04084 | -62.13653 | 33775 ft | 444 kts | 290° |
| 2026-05-07 22:00 | -18.01664 | -62.19600 | 33758 ft | 443 kts | 290° |
| 2026-05-07 22:00 | -17.99230 | -62.25575 | 33753 ft | 444 kts | 290° |
| 2026-05-07 22:01 | -17.96799 | -62.31537 | 33748 ft | 444 kts | 290° |
| 2026-05-07 22:01 | -17.94377 | -62.37471 | 33742 ft | 444 kts | 290° |
| 2026-05-07 22:02 | -17.91953 | -62.43406 | 33739 ft | 444 kts | 290° |
| 2026-05-07 22:02 | -17.89522 | -62.49347 | 33747 ft | 445 kts | 290° |
| 2026-05-07 22:03 | -17.87191 | -62.55041 | 33752 ft | 445 kts | 290° |
| 2026-05-07 22:03 | -17.84816 | -62.60836 | 33748 ft | 445 kts | 290° |
| 2026-05-07 22:04 | -17.82435 | -62.66637 | 33749 ft | 445 kts | 290° |
| 2026-05-07 22:04 | -17.80047 | -62.72455 | 33753 ft | 446 kts | 290° |
| 2026-05-07 22:05 | -17.77638 | -62.78317 | 33754 ft | 446 kts | 290° |
| 2026-05-07 22:05 | -17.75184 | -62.84278 | 33746 ft | 446 kts | 290° |
| 2026-05-07 22:06 | -17.72716 | -62.90273 | 33736 ft | 446 kts | 290° |
| 2026-05-07 22:06 | -17.70260 | -62.96229 | 33737 ft | 446 kts | 290° |
| 2026-05-07 22:07 | -17.67793 | -63.02207 | 33739 ft | 446 kts | 290° |
| 2026-05-07 22:07 | -17.65332 | -63.08164 | 33740 ft | 446 kts | 290° |
| 2026-05-07 22:08 | -17.62857 | -63.14176 | 33741 ft | 446 kts | 289° |
| 2026-05-07 22:08 | -17.60947 | -63.20297 | 33745 ft | 445 kts | 285° |
| 2026-05-07 22:09 | -17.59081 | -63.26493 | 33748 ft | 445 kts | 285° |
| 2026-05-07 22:09 | -17.57216 | -63.32684 | 33750 ft | 444 kts | 285° |
| 2026-05-07 22:10 | -17.55362 | -63.38832 | 33751 ft | 444 kts | 285° |
| 2026-05-07 22:10 | -17.53492 | -63.45028 | 33754 ft | 444 kts | 285° |
| 2026-05-07 22:11 | -17.51630 | -63.51194 | 33758 ft | 444 kts | 285° |
| 2026-05-07 22:11 | -17.49759 | -63.57376 | 33764 ft | 444 kts | 285° |
| 2026-05-07 22:12 | -17.47889 | -63.63548 | 33770 ft | 444 kts | 285° |
| 2026-05-07 22:12 | -17.46092 | -63.69473 | 33787 ft | 445 kts | 285° |
| 2026-05-07 22:13 | -17.44285 | -63.75425 | 33794 ft | 444 kts | 285° |
| 2026-05-07 22:13 | -17.42413 | -63.81580 | 33806 ft | 444 kts | 285° |
| 2026-05-07 22:14 | -17.40530 | -63.87769 | 33818 ft | 444 kts | 285° |
| 2026-05-07 22:14 | -17.38660 | -63.93902 | 33819 ft | 444 kts | 285° |
| 2026-05-07 22:15 | -17.36790 | -64.00033 | 33818 ft | 444 kts | 285° |
| 2026-05-07 22:15 | -17.34906 | -64.06198 | 33826 ft | 444 kts | 285° |
| 2026-05-07 22:16 | -17.33022 | -64.12358 | 33834 ft | 444 kts | 285° |
| 2026-05-07 22:16 | -17.31145 | -64.18491 | 33832 ft | 444 kts | 285° |
| 2026-05-07 22:17 | -17.29259 | -64.24641 | 33828 ft | 443 kts | 285° |
| 2026-05-07 22:17 | -17.27381 | -64.30758 | 33833 ft | 444 kts | 285° |
| 2026-05-07 22:18 | -17.24535 | -64.40015 | 33831 ft | 444 kts | 285° |
| 2026-05-07 22:19 | -17.22648 | -64.46147 | 33823 ft | 445 kts | 285° |
| 2026-05-07 22:19 | -17.20764 | -64.52314 | 33808 ft | 445 kts | 285° |
| 2026-05-07 22:20 | -17.18892 | -64.58463 | 33787 ft | 445 kts | 285° |
| 2026-05-07 22:20 | -17.17002 | -64.64658 | 33762 ft | 445 kts | 285° |
| 2026-05-07 22:21 | -17.15291 | -64.70264 | 33748 ft | 446 kts | 285° |